createdAt,value
2022-08-08T00:00:53.015Z,96.89
2022-08-08T00:00:59.547Z,97.19
2022-08-08T00:02:03.079Z,96.66
2022-08-08T00:02:40.217Z,96.56
2022-08-08T00:03:40.297Z,96.89
2022-08-08T00:04:48.900Z,96.22
2022-08-08T00:05:43.896Z,96.61
2022-08-08T00:06:40.056Z,96.99
2022-08-08T00:07:40.016Z,96.89
2022-08-08T00:08:39.973Z,96.51
2022-08-08T00:09:39.927Z,96.99
2022-08-08T00:10:39.908Z,96.51
2022-08-08T00:11:46.896Z,96.89
2022-08-08T00:12:39.804Z,96.70
2022-08-08T00:14:16.497Z,97.28
2022-08-08T00:14:48.455Z,96.70
2022-08-08T00:15:57.539Z,96.89
2022-08-08T00:16:39.641Z,97.57
2022-08-08T00:18:02.539Z,97.57
2022-08-08T00:18:39.557Z,97.76
2022-08-08T00:19:39.537Z,97.57
2022-08-08T00:20:39.502Z,97.57
2022-08-08T00:21:43.841Z,97.66
2022-08-08T00:22:39.731Z,97.96
2022-08-08T00:23:42.398Z,97.57
2022-08-08T00:24:39.310Z,97.38
2022-08-08T00:25:46.367Z,97.66
2022-08-08T00:26:39.242Z,97.66
2022-08-08T00:27:39.193Z,97.47
2022-08-08T00:28:39.149Z,97.66
2022-08-08T00:29:45.416Z,97.96
2022-08-08T00:30:45.180Z,98.05
2022-08-08T00:32:28.947Z,97.76
2022-08-08T00:32:39.105Z,97.76
2022-08-08T00:34:18.140Z,97.76
2022-08-08T00:34:38.938Z,97.76
2022-08-08T00:35:38.863Z,97.66
2022-08-08T00:36:38.819Z,97.57
2022-08-08T00:37:47.443Z,97.96
2022-08-08T00:38:51.612Z,97.86
2022-08-08T00:41:09.666Z,97.66
2022-08-08T00:41:11.790Z,97.66
2022-08-08T00:41:54.595Z,97.52
2022-08-08T00:42:41.793Z,97.66
2022-08-08T00:43:40.164Z,97.52
2022-08-08T00:44:38.488Z,97.42
2022-08-08T00:45:38.444Z,97.61
2022-08-08T00:46:57.783Z,97.52
2022-08-08T00:48:04.876Z,97.81
2022-08-08T00:48:38.950Z,97.81
2022-08-08T00:49:38.300Z,98.00
2022-08-08T00:50:40.735Z,97.61
2022-08-08T00:51:42.070Z,97.52
2022-08-08T00:52:40.194Z,97.52
2022-08-08T00:53:56.824Z,97.61
2022-08-08T00:54:38.074Z,97.52
2022-08-08T00:55:53.446Z,97.52
2022-08-08T00:56:38.006Z,96.37
2022-08-08T00:57:37.948Z,96.75
2022-08-08T00:58:37.912Z,96.56
2022-08-08T00:59:43.779Z,97.24
2022-08-08T01:00:38.049Z,97.04
2022-08-08T01:01:39.136Z,96.85
2022-08-08T01:04:01.557Z,96.27
2022-08-08T01:04:02.425Z,97.71
2022-08-08T01:04:37.672Z,97.61
2022-08-08T01:05:42.423Z,97.91
2022-08-08T01:06:37.578Z,97.61
2022-08-08T01:07:55.800Z,97.52
2022-08-08T01:08:37.492Z,97.81
2022-08-08T01:09:40.979Z,97.52
2022-08-08T01:10:37.425Z,97.52
2022-08-08T01:11:37.634Z,97.24
2022-08-08T01:12:37.332Z,97.52
2022-08-08T01:13:43.469Z,97.95
2022-08-08T01:14:53.222Z,97.66
2022-08-08T01:15:44.070Z,97.47
2022-08-08T01:16:37.364Z,97.38
2022-08-08T01:17:55.635Z,98.05
2022-08-08T01:18:52.713Z,97.76
2022-08-08T01:19:52.630Z,97.76
2022-08-08T01:20:36.999Z,97.66
2022-08-08T01:22:11.757Z,97.56
2022-08-08T01:22:37.195Z,97.28
2022-08-08T01:24:03.642Z,97.56
2022-08-08T01:24:36.829Z,97.28
2022-08-08T01:25:40.785Z,97.47
2022-08-08T01:26:36.748Z,97.47
2022-08-08T01:27:43.599Z,98.05
2022-08-08T01:28:36.857Z,97.66
2022-08-08T01:29:59.359Z,98.33
2022-08-08T01:30:36.578Z,98.24
2022-08-08T01:32:13.806Z,98.33
2022-08-08T01:32:36.499Z,98.43
2022-08-08T01:33:54.059Z,98.33
2022-08-08T01:34:36.414Z,98.72
2022-08-08T01:35:38.620Z,98.43
2022-08-08T01:36:36.332Z,98.82
2022-08-08T01:37:58.250Z,98.82
2022-08-08T01:38:36.246Z,98.33
2022-08-08T01:39:41.997Z,98.43
2022-08-08T01:40:36.166Z,98.62
2022-08-08T01:41:38.258Z,98.43
2022-08-08T01:42:36.793Z,98.53
2022-08-08T01:43:38.661Z,98.14
2022-08-08T01:44:36.000Z,98.24
2022-08-08T01:45:37.683Z,97.86
2022-08-08T01:46:35.917Z,97.86
2022-08-08T01:48:14.799Z,97.38
2022-08-08T01:48:35.834Z,97.38
2022-08-08T01:49:37.762Z,97.56
2022-08-08T01:50:36.472Z,97.28
2022-08-08T01:52:04.174Z,97.28
2022-08-08T01:53:28.922Z,97.42
2022-08-08T01:54:34.695Z,97.47
2022-08-08T01:55:45.428Z,97.81
2022-08-08T01:56:28.417Z,98.00
2022-08-08T01:56:37.061Z,97.81
2022-08-08T01:58:12.986Z,97.42
2022-08-08T01:58:39.515Z,98.19
2022-08-08T01:59:49.330Z,97.81
2022-08-08T02:00:35.345Z,97.90
2022-08-08T02:02:00.450Z,98.48
2022-08-08T02:02:41.513Z,98.57
2022-08-08T02:03:57.477Z,98.19
2022-08-08T02:04:35.166Z,98.67
2022-08-08T02:05:56.392Z,97.71
2022-08-08T02:06:36.662Z,98.00
2022-08-08T02:07:41.653Z,97.90
2022-08-08T02:08:34.998Z,97.33
2022-08-08T02:10:01.868Z,97.42
2022-08-08T02:10:44.708Z,98.00
2022-08-08T02:11:59.991Z,97.61
2022-08-08T02:12:34.847Z,97.33
2022-08-08T02:13:53.124Z,96.27
2022-08-08T02:14:34.754Z,96.75
2022-08-08T02:15:38.446Z,96.66
2022-08-08T02:16:34.701Z,96.85
2022-08-08T02:17:43.161Z,96.66
2022-08-08T02:18:34.577Z,97.42
2022-08-08T02:20:07.346Z,97.90
2022-08-08T02:21:02.718Z,97.56
2022-08-08T02:21:34.453Z,97.28
2022-08-08T02:22:52.431Z,97.38
2022-08-08T02:23:35.102Z,97.47
2022-08-08T02:24:34.325Z,97.76
2022-08-08T02:25:43.678Z,98.43
2022-08-08T02:26:34.242Z,98.14
2022-08-08T02:27:42.493Z,98.43
2022-08-08T02:28:35.460Z,98.43
2022-08-08T02:29:46.883Z,98.62
2022-08-08T02:30:34.082Z,98.52
2022-08-08T02:31:59.401Z,97.95
2022-08-08T02:32:34.200Z,98.43
2022-08-08T02:34:00.480Z,98.72
2022-08-08T02:34:34.524Z,98.62
2022-08-08T02:36:03.314Z,98.52
2022-08-08T02:36:33.825Z,98.33
2022-08-08T02:37:52.773Z,98.62
2022-08-08T02:38:33.745Z,98.72
2022-08-08T02:39:42.329Z,98.33
2022-08-08T02:40:33.762Z,98.33
2022-08-08T02:42:03.602Z,97.66
2022-08-08T02:42:38.578Z,97.95
2022-08-08T02:44:37.083Z,97.56
2022-08-08T02:44:42.640Z,97.47
2022-08-08T02:45:33.444Z,97.33
2022-08-08T02:46:33.417Z,97.33
2022-08-08T02:47:33.367Z,97.14
2022-08-08T02:48:33.319Z,97.52
2022-08-08T02:49:50.778Z,97.71
2022-08-08T02:50:33.236Z,97.33
2022-08-08T02:51:46.493Z,97.71
2022-08-08T02:52:38.230Z,98.57
2022-08-08T02:53:33.108Z,97.80
2022-08-08T02:54:34.431Z,98.38
2022-08-08T02:55:37.311Z,98.28
2022-08-08T02:56:32.979Z,98.67
2022-08-08T02:57:44.668Z,98.76
2022-08-08T02:58:32.915Z,98.67
2022-08-08T02:59:57.202Z,98.57
2022-08-08T03:00:33.645Z,98.57
2022-08-08T03:01:39.948Z,98.76
2022-08-08T03:02:32.871Z,98.28
2022-08-08T03:05:01.177Z,98.76
2022-08-08T03:05:03.007Z,98.38
2022-08-08T03:05:44.949Z,98.57
2022-08-08T03:06:35.044Z,98.86
2022-08-08T03:07:41.613Z,98.38
2022-08-08T03:08:32.478Z,98.47
2022-08-08T03:09:33.003Z,98.67
2022-08-08T03:10:36.335Z,98.28
2022-08-08T03:12:02.059Z,98.38
2022-08-08T03:12:36.726Z,98.47
2022-08-08T03:13:34.095Z,98.38
2022-08-08T03:15:58.852Z,98.57
2022-08-08T03:16:00.662Z,98.10
2022-08-08T03:16:35.202Z,98.57
2022-08-08T03:17:39.192Z,98.57
2022-08-08T03:18:32.055Z,98.47
2022-08-08T03:19:32.046Z,98.28
2022-08-08T03:20:31.968Z,98.47
2022-08-08T03:21:54.966Z,99.15
2022-08-08T03:22:48.231Z,99.24
2022-08-08T03:23:56.589Z,99.53
2022-08-08T03:24:31.807Z,99.24
2022-08-08T03:25:35.883Z,99.24
2022-08-08T03:26:32.716Z,98.96
2022-08-08T03:27:35.851Z,99.15
2022-08-08T03:28:31.637Z,99.43
2022-08-08T03:29:54.886Z,98.76
2022-08-08T03:30:32.207Z,99.53
2022-08-08T03:31:38.097Z,99.15
2022-08-08T03:32:31.659Z,98.76
2022-08-08T03:33:56.042Z,99.43
2022-08-08T03:34:31.381Z,99.72
2022-08-08T03:35:33.387Z,99.63
2022-08-08T03:36:31.582Z,99.53
2022-08-08T03:38:53.232Z,99.72
2022-08-08T03:38:56.874Z,99.15
2022-08-08T03:39:31.214Z,98.96
2022-08-08T03:40:32.090Z,99.05
2022-08-08T03:42:27.321Z,98.57
2022-08-08T03:42:31.107Z,98.19
2022-08-08T03:43:38.265Z,98.19
2022-08-08T03:44:30.964Z,98.47
2022-08-08T03:46:05.746Z,98.38
2022-08-08T03:46:32.299Z,98.38
2022-08-08T03:47:45.127Z,98.38
2022-08-08T03:49:09.547Z,98.38
2022-08-08T03:49:58.630Z,98.38
2022-08-08T03:50:30.714Z,98.47
2022-08-08T03:51:50.666Z,98.28
2022-08-08T03:52:30.885Z,98.00
2022-08-08T03:53:42.591Z,98.86
2022-08-08T03:54:41.281Z,98.86
2022-08-08T03:55:56.032Z,98.67
2022-08-08T03:56:32.077Z,98.38
2022-08-08T03:58:31.900Z,98.28
2022-08-08T03:58:37.206Z,98.57
2022-08-08T03:59:30.328Z,98.76
2022-08-08T04:00:30.562Z,98.67
2022-08-08T04:01:35.539Z,99.05
2022-08-08T04:02:33.163Z,99.43
2022-08-08T04:03:57.212Z,99.05
2022-08-08T04:04:31.126Z,99.05
2022-08-08T04:05:30.087Z,99.05
2022-08-08T04:06:30.523Z,98.38
2022-08-08T04:07:29.994Z,98.28
2022-08-08T04:08:33.664Z,98.86
2022-08-08T04:09:53.455Z,98.76
2022-08-08T04:10:32.159Z,98.57
2022-08-08T04:11:29.824Z,98.67
2022-08-08T04:12:29.961Z,98.57
2022-08-08T04:13:29.735Z,98.10
2022-08-08T04:14:35.606Z,98.38
2022-08-08T04:15:30.657Z,98.19
2022-08-08T04:16:38.792Z,98.38
2022-08-08T04:17:57.909Z,98.19
2022-08-08T04:18:29.523Z,98.28
2022-08-08T04:19:29.501Z,98.19
2022-08-08T04:20:29.442Z,98.47
2022-08-08T04:21:29.427Z,98.19
2022-08-08T04:22:30.044Z,98.28
2022-08-08T04:23:33.418Z,98.57
2022-08-08T04:24:31.152Z,98.67
2022-08-08T04:25:30.055Z,98.86
2022-08-08T04:26:40.227Z,99.34
2022-08-08T04:28:02.722Z,99.34
2022-08-08T04:28:40.196Z,99.15
2022-08-08T04:29:36.748Z,99.15
2022-08-08T04:30:29.019Z,99.24
2022-08-08T04:31:30.649Z,98.96
2022-08-08T04:32:30.224Z,99.34
2022-08-08T04:33:28.899Z,99.15
2022-08-08T04:34:31.883Z,99.15
2022-08-08T04:35:29.426Z,98.96
2022-08-08T04:36:28.768Z,99.15
2022-08-08T04:37:32.141Z,99.15
2022-08-08T04:38:28.680Z,99.15
2022-08-08T04:40:03.167Z,99.34
2022-08-08T04:40:28.659Z,99.15
2022-08-08T04:41:36.703Z,99.15
2022-08-08T04:42:28.684Z,98.96
2022-08-08T04:43:32.022Z,99.15
2022-08-08T04:44:28.430Z,99.15
2022-08-08T04:45:28.412Z,99.43
2022-08-08T04:46:28.349Z,99.72
2022-08-08T04:47:28.305Z,99.53
2022-08-08T04:48:28.260Z,99.72
2022-08-08T04:49:28.842Z,99.24
2022-08-08T04:50:34.299Z,99.24
2022-08-08T04:51:48.305Z,99.43
2022-08-08T04:52:33.717Z,98.96
2022-08-08T04:54:27.628Z,99.24
2022-08-08T04:54:40.346Z,99.43
2022-08-08T04:55:29.140Z,99.58
2022-08-08T04:56:27.927Z,99.19
2022-08-08T04:57:27.904Z,99.77
2022-08-08T04:58:27.843Z,99.48
2022-08-08T04:59:29.987Z,99.39
2022-08-08T05:00:27.756Z,99.19
2022-08-08T05:01:35.337Z,99.39
2022-08-08T05:02:30.532Z,98.62
2022-08-08T05:04:10.215Z,98.52
2022-08-08T05:04:27.619Z,98.72
2022-08-08T05:05:44.849Z,98.14
2022-08-08T05:06:29.190Z,98.43
2022-08-08T05:07:42.173Z,98.05
2022-08-08T05:08:30.494Z,98.05
2022-08-08T05:09:27.379Z,97.76
2022-08-08T05:10:28.176Z,97.28
2022-08-08T05:11:27.297Z,97.38
2022-08-08T05:12:29.556Z,97.47
2022-08-08T05:13:27.211Z,97.56
2022-08-08T05:14:29.285Z,97.56
2022-08-08T05:15:31.510Z,97.28
2022-08-08T05:16:54.289Z,97.85
2022-08-08T05:17:27.047Z,97.66
2022-08-08T05:18:27.642Z,97.47
2022-08-08T05:20:04.454Z,97.47
2022-08-08T05:20:26.922Z,97.38
2022-08-08T05:21:26.872Z,97.38
2022-08-08T05:22:26.845Z,97.38
2022-08-08T05:23:26.793Z,97.56
2022-08-08T05:24:26.777Z,97.56
2022-08-08T05:25:26.707Z,97.28
2022-08-08T05:26:27.571Z,97.38
2022-08-08T05:27:26.624Z,97.56
2022-08-08T05:28:55.765Z,97.28
2022-08-08T05:29:29.088Z,97.61
2022-08-08T05:30:28.258Z,97.61
2022-08-08T05:32:03.057Z,97.47
2022-08-08T05:32:27.327Z,97.81
2022-08-08T05:33:26.370Z,97.61
2022-08-08T05:34:26.468Z,97.42
2022-08-08T05:35:26.437Z,97.52
2022-08-08T05:36:28.107Z,97.61
2022-08-08T05:37:39.208Z,97.52
2022-08-08T05:38:31.787Z,97.23
2022-08-08T05:39:28.658Z,97.42
2022-08-08T05:40:28.602Z,97.52
2022-08-08T05:41:26.034Z,97.81
2022-08-08T05:42:26.135Z,97.90
2022-08-08T05:44:02.699Z,97.23
2022-08-08T05:44:26.697Z,97.71
2022-08-08T05:45:41.563Z,97.61
2022-08-08T05:46:25.833Z,97.71
2022-08-08T05:47:25.787Z,97.52
2022-08-08T05:48:28.584Z,97.66
2022-08-08T05:49:26.622Z,97.71
2022-08-08T05:50:25.658Z,97.76
2022-08-08T05:51:25.851Z,97.47
2022-08-08T05:52:35.907Z,97.47
2022-08-08T05:54:25.748Z,97.47
2022-08-08T05:54:50.350Z,96.89
2022-08-08T05:55:25.707Z,97.76
2022-08-08T05:56:25.407Z,97.47
2022-08-08T05:57:59.616Z,96.99
2022-08-08T05:58:30.127Z,96.99
2022-08-08T05:59:59.792Z,97.47
2022-08-08T06:03:47.314Z,97.19
2022-08-08T06:04:54.701Z,96.89
2022-08-08T06:05:46.854Z,97.47
2022-08-08T06:06:50.272Z,97.56
2022-08-08T06:07:46.789Z,97.56
2022-08-08T06:08:54.644Z,97.95
2022-08-08T06:10:01.328Z,98.72
2022-08-08T06:10:46.640Z,98.53
2022-08-08T06:11:46.702Z,98.24
2022-08-08T06:12:46.553Z,98.33
2022-08-08T06:13:47.864Z,98.53
2022-08-08T06:14:47.882Z,98.53
2022-08-08T06:15:50.890Z,98.77
2022-08-08T06:16:46.388Z,97.91
2022-08-08T06:17:51.216Z,98.00
2022-08-08T06:18:46.299Z,97.42
2022-08-08T06:19:46.261Z,97.33
2022-08-08T06:20:46.380Z,97.81
2022-08-08T06:21:51.431Z,97.33
2022-08-08T06:22:46.295Z,97.04
2022-08-08T06:23:48.631Z,96.66
2022-08-08T06:24:47.055Z,97.04
2022-08-08T06:26:35.257Z,96.56
2022-08-08T06:26:52.305Z,96.42
2022-08-08T06:27:48.138Z,96.80
2022-08-08T06:28:46.137Z,97.09
2022-08-08T06:29:59.298Z,96.99
2022-08-08T06:30:45.801Z,96.42
2022-08-08T06:31:52.320Z,96.22
2022-08-08T06:32:47.738Z,96.42
2022-08-08T06:34:26.919Z,96.32
2022-08-08T06:34:52.663Z,96.42
2022-08-08T06:36:07.522Z,96.42
2022-08-08T06:36:53.101Z,96.47
2022-08-08T06:37:51.104Z,95.79
2022-08-08T06:38:45.471Z,96.37
2022-08-08T06:39:56.180Z,95.89
2022-08-08T06:40:53.577Z,95.31
2022-08-08T06:41:45.345Z,95.07
2022-08-08T06:42:45.415Z,94.98
2022-08-08T06:43:47.716Z,94.49
2022-08-08T06:44:45.227Z,93.53
2022-08-08T06:45:45.432Z,92.29
2022-08-08T06:46:45.235Z,91.90
2022-08-08T06:47:53.965Z,90.79
2022-08-08T06:48:46.018Z,89.15
2022-08-08T06:49:54.786Z,89.15
2022-08-08T06:50:44.974Z,89.15
2022-08-08T06:51:47.007Z,88.10
2022-08-08T06:52:50.275Z,86.69
2022-08-08T06:53:51.013Z,85.74
2022-08-08T06:54:44.825Z,86.22
2022-08-08T06:55:47.338Z,86.22
2022-08-08T06:56:47.130Z,86.02
2022-08-08T06:57:56.159Z,85.83
2022-08-08T06:58:44.650Z,83.62
2022-08-08T07:00:10.218Z,83.33
2022-08-08T07:00:44.572Z,83.62
2022-08-08T07:02:18.665Z,83.18
2022-08-08T07:02:45.284Z,81.83
2022-08-08T07:04:35.954Z,81.54
2022-08-08T07:04:49.570Z,81.63
2022-08-08T07:05:44.503Z,82.31
2022-08-08T07:06:44.322Z,81.39
2022-08-08T07:07:44.476Z,80.71
2022-08-08T07:08:44.242Z,80.58
2022-08-08T07:09:56.291Z,80.62
2022-08-08T07:10:47.873Z,80.62
2022-08-08T07:11:50.756Z,80.33
2022-08-08T07:12:47.497Z,79.56
2022-08-08T07:14:00.907Z,79.27
2022-08-08T07:14:44.109Z,79.02
2022-08-08T07:16:04.953Z,79.21
2022-08-08T07:16:53.818Z,78.92
2022-08-08T07:18:01.689Z,78.44
2022-08-08T07:18:44.027Z,78.63
2022-08-08T07:19:43.938Z,78.44
2022-08-08T07:20:50.356Z,78.06
2022-08-08T07:21:44.421Z,77.38
2022-08-08T07:22:43.683Z,77.09
2022-08-08T07:24:01.580Z,76.71
2022-08-08T07:24:47.386Z,77.38
2022-08-08T07:25:54.121Z,75.74
2022-08-08T07:26:43.515Z,76.32
2022-08-08T07:28:00.630Z,76.42
2022-08-08T07:28:43.440Z,77.00
2022-08-08T07:30:01.875Z,76.80
2022-08-08T07:30:43.363Z,76.26
2022-08-08T07:31:43.995Z,75.78
2022-08-08T07:32:43.423Z,75.78
2022-08-08T07:33:53.705Z,75.10
2022-08-08T07:35:00.565Z,75.78
2022-08-08T07:35:43.157Z,75.59
2022-08-08T07:36:50.685Z,75.59
2022-08-08T07:38:05.036Z,75.53
2022-08-08T07:38:43.106Z,75.62
2022-08-08T07:39:45.444Z,74.95
2022-08-08T07:40:43.092Z,74.66
2022-08-08T07:42:03.501Z,74.66
2022-08-08T07:42:42.874Z,74.66
2022-08-08T07:43:43.092Z,74.27
2022-08-08T07:44:43.721Z,74.27
2022-08-08T07:45:51.549Z,74.18
2022-08-08T07:46:42.908Z,73.21
2022-08-08T07:47:43.497Z,73.50
2022-08-08T07:48:42.634Z,73.21
2022-08-08T07:49:46.302Z,73.21
2022-08-08T07:50:42.559Z,72.83
2022-08-08T07:51:53.209Z,72.54
2022-08-08T07:52:43.651Z,72.25
2022-08-08T07:54:01.287Z,71.86
2022-08-08T07:54:42.761Z,72.09
2022-08-08T07:55:42.358Z,71.28
2022-08-08T07:56:42.587Z,71.32
2022-08-08T07:57:48.785Z,72.09
2022-08-08T07:58:42.394Z,71.32
2022-08-08T07:59:42.433Z,71.42
2022-08-08T08:00:42.228Z,71.55
2022-08-08T08:02:35.680Z,70.97
2022-08-08T08:02:42.124Z,71.06
2022-08-08T08:03:43.907Z,70.29
2022-08-08T08:04:42.033Z,70.20
2022-08-08T08:05:42.080Z,70.00
2022-08-08T08:06:42.048Z,70.39
2022-08-08T08:07:41.972Z,69.23
2022-08-08T08:08:52.108Z,68.36
2022-08-08T08:09:41.806Z,68.84
2022-08-08T08:10:42.069Z,69.07
2022-08-08T08:11:51.542Z,68.68
2022-08-08T08:12:43.577Z,68.01
2022-08-08T08:13:43.122Z,67.82
2022-08-08T08:14:41.683Z,66.40
2022-08-08T08:15:41.761Z,65.27
2022-08-08T08:16:42.141Z,63.27
2022-08-08T08:17:44.948Z,62.37
2022-08-08T08:18:55.635Z,59.88
2022-08-08T08:19:45.454Z,57.48
2022-08-08T08:20:41.517Z,56.18
2022-08-08T08:21:52.910Z,53.97
2022-08-08T08:22:41.301Z,52.64
2022-08-08T08:23:41.396Z,51.89
2022-08-08T08:24:43.001Z,51.07
2022-08-08T08:25:44.874Z,49.83
2022-08-08T08:26:52.548Z,48.51
2022-08-08T08:27:46.895Z,48.17
2022-08-08T08:28:41.108Z,44.97
2022-08-08T08:29:42.318Z,43.99
2022-08-08T08:30:41.181Z,43.24
2022-08-08T08:31:41.602Z,42.16
2022-08-08T08:32:51.982Z,42.19
2022-08-08T08:33:40.872Z,41.91
2022-08-08T08:34:43.053Z,41.44
2022-08-08T08:36:18.917Z,41.36
2022-08-08T08:36:40.766Z,40.58
2022-08-08T08:38:13.165Z,40.31
2022-08-08T08:38:50.010Z,38.96
2022-08-08T08:40:01.351Z,38.57
2022-08-08T08:40:40.617Z,38.59
2022-08-08T08:41:40.580Z,37.81
2022-08-08T08:42:40.559Z,37.49
2022-08-08T08:43:42.377Z,38.00
2022-08-08T08:44:40.466Z,38.10
2022-08-08T08:45:40.439Z,37.52
2022-08-08T08:46:40.395Z,36.55
2022-08-08T08:47:43.903Z,36.43
2022-08-08T08:48:49.095Z,36.53
2022-08-08T08:49:43.006Z,36.24
2022-08-08T08:50:41.030Z,36.45
2022-08-08T08:51:40.214Z,35.75
2022-08-08T08:52:40.182Z,35.86
2022-08-08T08:53:56.200Z,36.06
2022-08-08T08:54:40.125Z,35.78
2022-08-08T08:55:40.192Z,35.58
2022-08-08T08:56:40.038Z,35.11
2022-08-08T08:57:40.001Z,34.95
2022-08-08T08:58:39.988Z,33.87
2022-08-08T09:00:00.093Z,33.38
2022-08-08T09:01:04.957Z,32.79
2022-08-08T09:01:43.752Z,33.38
2022-08-08T09:02:41.675Z,33.18
2022-08-08T09:03:46.832Z,33.29
2022-08-08T09:04:45.530Z,32.69
2022-08-08T09:05:53.703Z,32.89
2022-08-08T09:06:44.771Z,32.18
2022-08-08T09:07:52.240Z,33.05
2022-08-08T09:08:39.613Z,33.54
2022-08-08T09:09:47.635Z,33.46
2022-08-08T09:10:39.547Z,33.87
2022-08-08T09:11:47.783Z,33.28
2022-08-08T09:12:39.474Z,32.89
2022-08-08T09:13:39.438Z,32.31
2022-08-08T09:14:42.477Z,32.51
2022-08-08T09:15:42.224Z,32.43
2022-08-08T09:16:39.336Z,32.34
2022-08-08T09:17:41.289Z,31.87
2022-08-08T09:18:39.270Z,31.59
2022-08-08T09:21:57.056Z,30.45
2022-08-08T09:22:00.703Z,30.83
2022-08-08T09:22:01.170Z,31.41
2022-08-08T09:22:39.393Z,29.58
2022-08-08T09:23:40.714Z,28.59
2022-08-08T09:24:40.127Z,28.59
2022-08-08T09:26:01.993Z,29.00
2022-08-08T09:26:39.654Z,28.72
2022-08-08T09:27:56.389Z,27.73
2022-08-08T09:28:38.953Z,27.34
2022-08-08T09:29:38.921Z,27.64
2022-08-08T09:30:38.888Z,27.62
2022-08-08T09:31:42.287Z,27.33
2022-08-08T09:32:38.840Z,27.72
2022-08-08T09:34:14.710Z,27.44
2022-08-08T09:34:38.768Z,26.75
2022-08-08T09:35:38.741Z,26.84
2022-08-08T09:36:38.704Z,26.54
2022-08-08T09:38:00.984Z,27.48
2022-08-08T09:38:52.719Z,27.78
2022-08-08T09:39:38.664Z,27.50
2022-08-08T09:40:43.895Z,26.81
2022-08-08T09:42:14.717Z,26.79
2022-08-08T09:42:44.075Z,27.17
2022-08-08T09:43:40.632Z,27.57
2022-08-08T09:44:38.476Z,27.09
2022-08-08T09:46:02.202Z,26.99
2022-08-08T09:46:38.778Z,26.90
2022-08-08T09:48:09.694Z,26.64
2022-08-08T09:48:42.467Z,26.24
2022-08-08T09:49:49.783Z,25.76
2022-08-08T09:50:43.952Z,25.37
2022-08-08T09:51:41.434Z,25.16
2022-08-08T09:52:58.257Z,25.46
2022-08-08T09:53:59.111Z,25.38
2022-08-08T09:54:38.449Z,25.29
2022-08-08T09:56:04.385Z,25.51
2022-08-08T09:56:41.092Z,24.82
2022-08-08T09:57:46.141Z,23.73
2022-08-08T09:58:40.644Z,23.73
2022-08-08T10:00:01.794Z,23.25
2022-08-08T10:00:53.343Z,22.64
2022-08-08T10:02:01.962Z,23.43
2022-08-08T10:02:37.969Z,23.81
2022-08-08T10:03:40.105Z,23.81
2022-08-08T10:04:41.581Z,23.33
2022-08-08T10:05:37.990Z,23.03
2022-08-08T10:06:38.323Z,23.22
2022-08-08T10:07:43.458Z,23.44
2022-08-08T10:08:37.811Z,23.33
2022-08-08T10:10:00.559Z,23.65
2022-08-08T10:10:37.765Z,23.07
2022-08-08T10:12:26.146Z,21.98
2022-08-08T10:12:52.737Z,22.29
2022-08-08T10:13:38.467Z,22.39
2022-08-08T10:14:38.729Z,21.71
2022-08-08T10:15:39.274Z,21.71
2022-08-08T10:16:37.590Z,21.32
2022-08-08T10:17:56.873Z,21.03
2022-08-08T10:18:37.539Z,21.03
2022-08-08T10:19:45.797Z,20.72
2022-08-08T10:20:40.636Z,20.83
2022-08-08T10:21:42.300Z,21.03
2022-08-08T10:22:37.443Z,20.73
2022-08-08T10:23:42.278Z,21.22
2022-08-08T10:24:38.078Z,21.12
2022-08-08T10:25:56.216Z,20.94
2022-08-08T10:26:52.141Z,20.95
2022-08-08T10:27:37.306Z,20.76
2022-08-08T10:28:37.297Z,20.47
2022-08-08T10:29:57.023Z,19.97
2022-08-08T10:31:00.483Z,19.98
2022-08-08T10:31:46.531Z,19.58
2022-08-08T10:32:37.777Z,19.68
2022-08-08T10:33:38.323Z,19.58
2022-08-08T10:34:37.213Z,19.68
2022-08-08T10:36:08.539Z,19.78
2022-08-08T10:36:37.077Z,19.88
2022-08-08T10:37:37.044Z,19.98
2022-08-08T10:38:37.019Z,19.98
2022-08-08T10:39:53.781Z,19.78
2022-08-08T10:40:37.079Z,19.97
2022-08-08T10:41:58.508Z,19.77
2022-08-08T10:42:37.365Z,19.78
2022-08-08T10:43:36.892Z,19.98
2022-08-08T10:44:36.869Z,20.09
2022-08-08T10:45:39.062Z,19.80
2022-08-08T10:46:36.834Z,19.71
2022-08-08T10:47:43.852Z,19.10
2022-08-08T10:48:56.746Z,19.10
2022-08-08T10:50:01.337Z,19.31
2022-08-08T10:50:36.711Z,18.22
2022-08-08T10:51:47.308Z,18.32
2022-08-08T10:52:36.700Z,18.51
2022-08-08T10:53:56.711Z,18.70
2022-08-08T10:54:40.641Z,18.99
2022-08-08T10:55:40.951Z,19.38
2022-08-08T10:56:36.576Z,19.58
2022-08-08T10:57:45.388Z,19.88
2022-08-08T10:58:36.527Z,19.67
2022-08-08T10:59:39.658Z,19.78
2022-08-08T11:00:53.167Z,19.89
2022-08-08T11:01:36.492Z,19.10
2022-08-08T11:02:36.512Z,18.90
2022-08-08T11:04:00.241Z,19.10
2022-08-08T11:04:39.039Z,19.31
2022-08-08T11:05:38.971Z,19.10
2022-08-08T11:06:36.313Z,19.40
2022-08-08T11:08:30.241Z,19.01
2022-08-08T11:08:41.107Z,18.41
2022-08-08T11:09:36.242Z,18.32
2022-08-08T11:10:36.213Z,18.52
2022-08-08T11:12:06.438Z,18.44
2022-08-08T11:12:38.197Z,17.95
2022-08-08T11:13:36.141Z,17.35
2022-08-08T11:14:36.119Z,16.96
2022-08-08T11:15:36.089Z,16.86
2022-08-08T11:16:36.070Z,16.96
2022-08-08T11:17:58.290Z,16.96
2022-08-08T11:18:36.021Z,16.86
2022-08-08T11:19:35.998Z,17.05
2022-08-08T11:20:35.971Z,16.75
2022-08-08T11:21:37.874Z,16.95
2022-08-08T11:22:35.950Z,16.94
2022-08-08T11:23:35.897Z,17.03
2022-08-08T11:24:36.017Z,16.83
2022-08-08T11:25:52.874Z,17.24
2022-08-08T11:26:38.271Z,17.24
2022-08-08T11:27:36.986Z,16.93
2022-08-08T11:28:38.468Z,17.42
2022-08-08T11:29:51.508Z,17.73
2022-08-08T11:30:35.728Z,17.03
2022-08-08T11:31:43.194Z,17.52
2022-08-08T11:32:36.462Z,17.53
2022-08-08T11:33:52.725Z,17.54
2022-08-08T11:34:58.460Z,17.35
2022-08-08T11:35:38.621Z,17.26
2022-08-08T11:36:36.323Z,17.07
2022-08-08T11:38:34.420Z,16.36
2022-08-08T11:38:43.671Z,16.75
2022-08-08T11:39:36.847Z,16.96
2022-08-08T11:40:35.497Z,17.07
2022-08-08T11:41:35.458Z,16.77
2022-08-08T11:42:35.729Z,16.56
2022-08-08T11:43:39.093Z,16.36
2022-08-08T11:44:35.382Z,16.96
2022-08-08T11:45:59.793Z,16.97
2022-08-08T11:46:35.350Z,16.68
2022-08-08T11:47:39.227Z,16.59
2022-08-08T11:48:35.287Z,15.78
2022-08-08T11:49:35.267Z,15.78
2022-08-08T11:50:35.246Z,15.99
2022-08-08T11:51:49.495Z,15.50
2022-08-08T11:52:36.487Z,16.00
2022-08-08T11:53:42.814Z,16.00
2022-08-08T11:54:38.258Z,15.99
2022-08-08T11:55:35.128Z,15.59
2022-08-08T11:56:35.173Z,15.99
2022-08-08T11:57:36.042Z,15.59
2022-08-08T11:58:35.057Z,15.69
2022-08-08T12:00:02.124Z,15.89
2022-08-08T12:00:35.015Z,15.70
2022-08-08T12:01:35.418Z,15.00
2022-08-08T12:02:35.004Z,15.21
2022-08-08T12:03:34.967Z,15.01
2022-08-08T12:04:34.919Z,15.42
2022-08-08T12:05:34.900Z,15.12
2022-08-08T12:06:34.873Z,15.32
2022-08-08T12:07:35.678Z,15.52
2022-08-08T12:08:34.823Z,15.63
2022-08-08T12:09:56.516Z,15.12
2022-08-08T12:10:36.456Z,14.81
2022-08-08T12:11:34.757Z,15.20
2022-08-08T12:12:35.055Z,15.39
2022-08-08T12:14:02.093Z,15.39
2022-08-08T12:14:34.686Z,15.49
2022-08-08T12:15:41.765Z,15.59
2022-08-08T12:16:44.770Z,15.69
2022-08-08T12:17:36.137Z,15.38
2022-08-08T12:18:34.605Z,15.79
2022-08-08T12:19:51.100Z,15.80
2022-08-08T12:20:34.548Z,15.00
2022-08-08T12:21:59.246Z,15.10
2022-08-08T12:22:44.962Z,15.60
2022-08-08T12:23:43.266Z,15.01
2022-08-08T12:24:34.475Z,14.62
2022-08-08T12:25:34.429Z,14.92
2022-08-08T12:26:35.778Z,14.93
2022-08-08T12:27:35.767Z,14.72
2022-08-08T12:28:34.367Z,14.71
2022-08-08T12:29:40.113Z,14.50
2022-08-08T12:30:34.342Z,15.59
2022-08-08T12:31:39.363Z,15.68
2022-08-08T12:32:34.536Z,16.16
2022-08-08T12:33:37.871Z,16.36
2022-08-08T12:34:36.089Z,16.16
2022-08-08T12:35:34.197Z,16.37
2022-08-08T12:36:34.546Z,16.48
2022-08-08T12:37:40.841Z,16.58
2022-08-08T12:38:34.127Z,16.17
2022-08-08T12:39:59.963Z,16.48
2022-08-08T12:40:34.133Z,16.09
2022-08-08T12:41:56.871Z,15.68
2022-08-08T12:42:34.971Z,15.78
2022-08-08T12:43:47.674Z,15.88
2022-08-08T12:44:33.988Z,16.29
2022-08-08T12:45:58.582Z,15.49
2022-08-08T12:46:33.957Z,15.19
2022-08-08T12:47:58.731Z,15.20
2022-08-08T12:48:37.310Z,14.50
2022-08-08T12:49:43.483Z,15.09
2022-08-08T12:50:33.842Z,15.59
2022-08-08T12:51:39.862Z,15.58
2022-08-08T12:52:33.797Z,15.78
2022-08-08T12:53:37.775Z,15.99
2022-08-08T12:54:36.336Z,15.50